Terminal Aerodrome Forecast
Issued by NWS

Home | Current Version | Previous Version | Text Only | Print | Product List | Glossary On
Versions: 1 2 3 4 5 6 7 8 9 10 11 12 13 14 15 16
019
FTPA31 PHFO 220528
TAFHJR
TAF
PHJR 220528Z 2206/2306 06004KT P6SM FEW045
     FM222100 15010KT P6SM FEW070
     FM230400 VRB05KT P6SM FEW050=

USA.gov is the U.S. government's official web portal to all federal, state and local government web resources and services.